createdAt,value
2023-02-13T00:00:49.739Z,49.83
2023-02-13T00:03:17.448Z,49.26
2023-02-13T00:05:45.088Z,49.25
2023-02-13T00:08:12.504Z,49.04
2023-02-13T00:10:40.368Z,49.56
2023-02-13T00:13:07.738Z,49.51
2023-02-13T00:15:35.314Z,48.64
2023-02-13T00:18:03.463Z,49.02
2023-02-13T00:20:30.834Z,48.48
2023-02-13T00:23:01.356Z,48.00
2023-02-13T00:25:29.065Z,48.38
2023-02-13T00:27:56.870Z,48.36
2023-02-13T00:30:24.468Z,48.72
2023-02-13T00:32:52.207Z,48.38
2023-02-13T00:35:19.637Z,48.52
2023-02-13T00:37:47.030Z,48.53
2023-02-13T00:40:15.400Z,48.11
2023-02-13T00:42:42.810Z,48.16
2023-02-13T00:45:10.216Z,48.71
2023-02-13T00:47:37.891Z,48.39
2023-02-13T00:50:05.893Z,48.10
2023-02-13T00:52:33.310Z,48.85
2023-02-13T00:55:01.006Z,49.00
2023-02-13T00:57:29.292Z,48.58
2023-02-13T00:59:56.645Z,48.76
2023-02-13T01:02:24.632Z,48.26
2023-02-13T01:04:52.064Z,48.32
2023-02-13T01:07:19.528Z,50.04
2023-02-13T01:09:47.202Z,53.42
2023-02-13T01:12:14.601Z,52.35
2023-02-13T01:14:42.571Z,49.89
2023-02-13T01:17:10.784Z,49.63
2023-02-13T01:19:40.902Z,49.63
2023-02-13T01:22:08.725Z,48.63
2023-02-13T01:24:36.390Z,48.09
2023-02-13T01:27:03.937Z,48.01
2023-02-13T01:29:31.365Z,48.65
2023-02-13T01:31:59.294Z,49.23
2023-02-13T01:34:28.877Z,49.25
2023-02-13T01:36:56.281Z,48.59
2023-02-13T01:39:25.505Z,47.15
2023-02-13T01:41:52.893Z,46.51
2023-02-13T01:44:45.054Z,46.64
2023-02-13T01:47:16.264Z,48.48
2023-02-13T01:49:45.670Z,54.38
2023-02-13T01:52:14.332Z,51.43
2023-02-13T01:54:42.069Z,53.21
2023-02-13T01:57:19.670Z,53.56
2023-02-13T02:00:01.721Z,60.72
2023-02-13T02:02:32.178Z,63.32
2023-02-13T02:05:01.843Z,60.25
2023-02-13T02:07:30.093Z,58.13
2023-02-13T02:10:03.542Z,58.89
2023-02-13T02:12:40.661Z,61.12
2023-02-13T02:15:10.347Z,62.42
2023-02-13T02:17:38.341Z,68.86
2023-02-13T02:20:46.756Z,69.35
2023-02-13T02:23:49.677Z,64.95
2023-02-13T02:27:14.343Z,67.09
2023-02-13T02:30:24.699Z,65.38
2023-02-13T02:32:57.110Z,64.59
2023-02-13T02:35:37.411Z,61.54
2023-02-13T02:38:15.037Z,59.79
2023-02-13T02:41:01.622Z,59.84
2023-02-13T02:43:57.630Z,58.51
2023-02-13T02:46:34.432Z,58.95
2023-02-13T02:49:23.763Z,62.01
2023-02-13T02:52:07.753Z,62.65
2023-02-13T02:55:06.516Z,66.86
2023-02-13T02:58:02.891Z,69.42
2023-02-13T03:00:51.417Z,69.23
2023-02-13T03:03:41.418Z,65.36
2023-02-13T03:06:24.458Z,62.95
2023-02-13T03:09:17.547Z,61.16
2023-02-13T03:12:08.187Z,62.87
2023-02-13T03:14:35.879Z,59.83
2023-02-13T03:17:22.203Z,59.63
2023-02-13T03:20:22.518Z,58.64
2023-02-13T03:23:15.784Z,56.97
2023-02-13T03:26:33.138Z,57.29
2023-02-13T03:29:37.496Z,55.03
2023-02-13T03:32:20.398Z,47.92
2023-02-13T03:35:13.337Z,51.19
2023-02-13T03:37:56.573Z,56.64
2023-02-13T03:40:29.705Z,56.64
2023-02-13T03:43:15.396Z,53.14
2023-02-13T03:45:57.199Z,59.79
2023-02-13T03:48:46.461Z,59.54
2023-02-13T03:51:27.610Z,65.79
2023-02-13T03:53:57.421Z,67.24
2023-02-13T03:56:45.745Z,68.08
2023-02-13T03:59:21.387Z,67.38
2023-02-13T04:02:17.112Z,64.78
2023-02-13T04:05:18.920Z,63.76
2023-02-13T04:07:46.371Z,62.60
2023-02-13T04:10:16.453Z,53.06
2023-02-13T04:13:08.971Z,52.61
2023-02-13T04:15:48.207Z,54.81
2023-02-13T04:18:21.510Z,61.04
2023-02-13T04:20:49.379Z,60.75
2023-02-13T04:23:16.934Z,60.79
2023-02-13T04:25:50.740Z,61.88
2023-02-13T04:28:18.616Z,60.90
2023-02-13T04:30:46.175Z,61.99
2023-02-13T04:33:13.708Z,61.13
2023-02-13T04:35:41.417Z,65.34
2023-02-13T04:38:08.837Z,68.83
2023-02-13T04:40:36.258Z,66.71
2023-02-13T04:43:03.975Z,71.00
2023-02-13T04:45:31.397Z,71.50
2023-02-13T04:47:59.174Z,70.93
2023-02-13T04:50:26.860Z,69.80
2023-02-13T04:52:55.881Z,67.39
2023-02-13T04:55:24.593Z,62.60
2023-02-13T04:57:53.964Z,62.42
2023-02-13T05:00:26.245Z,60.01
2023-02-13T05:02:54.317Z,61.34
2023-02-13T05:05:21.749Z,59.59
2023-02-13T05:07:49.127Z,59.83
2023-02-13T05:10:16.928Z,54.44
2023-02-13T05:12:44.296Z,50.74
2023-02-13T05:15:11.787Z,51.98
2023-02-13T05:17:39.610Z,59.83
2023-02-13T05:20:07.534Z,61.91
2023-02-13T05:22:53.805Z,65.98
2023-02-13T05:25:21.534Z,62.43
2023-02-13T05:27:48.940Z,59.66
2023-02-13T05:30:16.342Z,57.52
2023-02-13T05:32:44.186Z,53.79
2023-02-13T05:35:12.893Z,58.33
2023-02-13T05:37:40.284Z,61.68
2023-02-13T05:40:09.119Z,66.58
2023-02-13T05:42:36.481Z,67.51
2023-02-13T05:45:04.075Z,70.42
2023-02-13T05:47:31.779Z,70.15
2023-02-13T05:49:59.263Z,62.37
2023-02-13T05:52:26.717Z,59.11
2023-02-13T05:54:54.591Z,67.38
2023-02-13T05:57:22.155Z,68.71
2023-02-13T05:59:49.633Z,67.36
2023-02-13T06:02:17.371Z,65.15
2023-02-13T06:04:45.121Z,66.26
2023-02-13T06:07:12.657Z,68.00
2023-02-13T06:09:40.049Z,68.57
2023-02-13T06:12:07.965Z,68.75
2023-02-13T06:14:35.679Z,70.64
2023-02-13T06:17:03.187Z,70.31
2023-02-13T06:19:30.861Z,67.46
2023-02-13T06:21:58.291Z,65.89
2023-02-13T06:24:25.665Z,65.96
2023-02-13T06:26:53.397Z,68.57
2023-02-13T06:29:20.787Z,67.61
2023-02-13T06:31:48.241Z,68.16
2023-02-13T06:34:15.987Z,70.77
2023-02-13T06:36:43.421Z,69.62
2023-02-13T06:39:11.290Z,69.55
2023-02-13T06:41:38.940Z,68.37
2023-02-13T06:44:07.816Z,67.42
2023-02-13T06:46:35.337Z,68.22
2023-02-13T06:49:03.190Z,67.19
2023-02-13T06:51:30.770Z,67.94
2023-02-13T06:53:58.152Z,69.19
2023-02-13T06:56:26.480Z,68.59
2023-02-13T06:58:53.927Z,66.82
2023-02-13T07:01:21.615Z,64.94
2023-02-13T07:03:49.380Z,62.59
2023-02-13T07:06:18.863Z,65.15
2023-02-13T07:08:47.124Z,65.18
2023-02-13T07:11:22.415Z,64.39
2023-02-13T07:13:49.860Z,66.36
2023-02-13T07:16:17.661Z,65.02
2023-02-13T07:18:47.281Z,63.79
2023-02-13T07:21:14.701Z,59.77
2023-02-13T07:23:42.409Z,67.19
2023-02-13T07:26:11.189Z,65.40
2023-02-13T07:28:38.710Z,59.68
2023-02-13T07:31:06.840Z,55.16
2023-02-13T07:33:34.693Z,52.40
2023-02-13T07:36:03.659Z,54.94
2023-02-13T07:38:32.068Z,55.58
2023-02-13T07:41:00.619Z,55.19
2023-02-13T07:43:28.697Z,55.14
2023-02-13T07:46:00.784Z,58.27
2023-02-13T07:48:29.313Z,60.13
2023-02-13T07:51:01.536Z,56.14
2023-02-13T07:53:29.464Z,54.86
2023-02-13T07:55:57.531Z,55.00
2023-02-13T07:58:25.060Z,54.58
2023-02-13T08:00:52.464Z,56.39
2023-02-13T08:03:20.318Z,57.92
2023-02-13T08:05:49.169Z,56.51
2023-02-13T08:08:17.112Z,55.40
2023-02-13T08:11:03.474Z,56.56
2023-02-13T08:13:30.876Z,55.12
2023-02-13T08:15:58.721Z,54.28
2023-02-13T08:18:27.651Z,53.05
2023-02-13T08:20:55.163Z,53.21
2023-02-13T08:23:22.887Z,52.06
2023-02-13T08:25:50.334Z,50.75
2023-02-13T08:28:17.794Z,53.21
2023-02-13T08:30:45.545Z,51.81
2023-02-13T08:33:12.948Z,51.50
2023-02-13T08:35:40.397Z,49.98
2023-02-13T08:38:09.330Z,51.22
2023-02-13T08:40:36.870Z,49.56
2023-02-13T08:43:06.052Z,50.29
2023-02-13T08:45:36.455Z,49.82
2023-02-13T08:48:04.316Z,49.44
2023-02-13T08:50:32.398Z,48.40
2023-02-13T08:53:00.485Z,47.70
2023-02-13T08:55:29.887Z,47.45
2023-02-13T08:58:06.606Z,46.47
2023-02-13T09:00:34.628Z,46.44
2023-02-13T09:03:02.780Z,43.91
2023-02-13T09:05:31.727Z,45.41
2023-02-13T09:08:02.831Z,44.97
2023-02-13T09:10:31.631Z,48.22
2023-02-13T09:12:59.418Z,47.86
2023-02-13T09:15:27.218Z,46.63
2023-02-13T09:17:54.663Z,48.56
2023-02-13T09:20:22.369Z,49.54
2023-02-13T09:22:49.763Z,47.69
2023-02-13T09:25:17.138Z,47.93
2023-02-13T09:27:44.808Z,47.96
2023-02-13T09:30:18.184Z,45.54
2023-02-13T09:32:45.858Z,45.87
2023-02-13T09:35:15.032Z,45.41
2023-02-13T09:37:42.510Z,46.73
2023-02-13T09:40:18.858Z,48.67
2023-02-13T09:42:46.743Z,46.43
2023-02-13T09:45:15.342Z,45.27
2023-02-13T09:47:44.075Z,45.60
2023-02-13T09:50:17.902Z,44.67
2023-02-13T09:52:46.751Z,42.64
2023-02-13T09:55:17.156Z,42.79
2023-02-13T09:58:04.467Z,41.46
2023-02-13T10:00:40.467Z,42.11
2023-02-13T10:03:27.179Z,41.87
2023-02-13T10:06:02.883Z,42.36
2023-02-13T10:08:55.537Z,47.98
2023-02-13T10:12:01.349Z,49.62
2023-02-13T10:14:41.195Z,50.85
2023-02-13T10:17:15.031Z,48.33
2023-02-13T10:19:55.602Z,46.04
2023-02-13T10:22:43.361Z,42.34
2023-02-13T10:25:35.178Z,47.51
2023-02-13T10:28:11.386Z,44.19
2023-02-13T10:30:49.185Z,48.24
2023-02-13T10:33:20.692Z,50.23
2023-02-13T10:35:52.806Z,50.67
2023-02-13T10:38:22.301Z,49.60
2023-02-13T10:41:08.716Z,45.90
2023-02-13T10:43:40.711Z,47.61
2023-02-13T10:46:15.644Z,46.97
2023-02-13T10:48:48.731Z,43.10
2023-02-13T10:52:00.898Z,41.31
2023-02-13T10:54:47.910Z,41.99
2023-02-13T10:57:43.869Z,43.34
2023-02-13T11:00:39.101Z,41.11
2023-02-13T11:03:10.302Z,43.56
2023-02-13T11:05:38.229Z,44.83
2023-02-13T11:08:19.354Z,47.10
2023-02-13T11:10:47.383Z,49.08
2023-02-13T11:13:17.076Z,44.69
2023-02-13T11:15:59.521Z,45.55
2023-02-13T11:18:30.469Z,44.45
2023-02-13T11:21:08.871Z,47.87
2023-02-13T11:23:50.785Z,49.78
2023-02-13T11:26:31.644Z,46.85
2023-02-13T11:29:18.386Z,48.02
2023-02-13T11:31:45.679Z,47.71
2023-02-13T11:34:22.124Z,51.89
2023-02-13T11:37:29.146Z,49.59
2023-02-13T11:40:00.131Z,50.38
2023-02-13T11:42:34.806Z,51.45
2023-02-13T11:45:08.512Z,51.19
2023-02-13T11:47:42.617Z,48.10
2023-02-13T11:50:22.704Z,47.59
2023-02-13T11:53:06.236Z,49.69
2023-02-13T11:55:34.344Z,49.04
2023-02-13T11:58:03.098Z,47.58
2023-02-13T12:00:40.136Z,51.00
2023-02-13T12:03:20.091Z,47.95
2023-02-13T12:06:06.357Z,47.08
2023-02-13T12:08:37.355Z,46.58
2023-02-13T12:11:17.400Z,47.33
2023-02-13T12:13:45.410Z,47.61
2023-02-13T12:16:39.174Z,46.36
2023-02-13T12:19:25.953Z,45.04
2023-02-13T12:21:59.412Z,46.31
2023-02-13T12:24:37.987Z,46.02
2023-02-13T12:27:33.578Z,44.57
2023-02-13T12:30:19.580Z,44.68
2023-02-13T12:33:17.090Z,44.74
2023-02-13T12:35:57.018Z,43.86
2023-02-13T12:38:47.208Z,43.45
2023-02-13T12:41:54.505Z,44.67
2023-02-13T12:44:46.505Z,45.49
2023-02-13T12:47:27.051Z,45.74
2023-02-13T12:50:29.922Z,42.11
2023-02-13T12:53:20.544Z,42.20
2023-02-13T12:56:08.892Z,43.37
2023-02-13T12:58:45.314Z,48.69
2023-02-13T13:01:38.905Z,44.32
2023-02-13T13:04:25.302Z,44.61
2023-02-13T13:07:28.558Z,43.65
2023-02-13T13:10:15.952Z,41.94
2023-02-13T13:12:57.343Z,44.57
2023-02-13T13:15:43.152Z,44.65
2023-02-13T13:18:25.961Z,43.29
2023-02-13T13:20:59.774Z,45.21
2023-02-13T13:23:35.810Z,44.29
2023-02-13T13:26:10.863Z,45.46
2023-02-13T13:28:39.164Z,48.39
2023-02-13T13:31:07.729Z,44.09
2023-02-13T13:33:36.087Z,44.27
2023-02-13T13:36:53.551Z,44.91
2023-02-13T13:39:33.347Z,47.30
2023-02-13T13:42:09.917Z,48.02
2023-02-13T13:45:00.794Z,47.04
2023-02-13T13:47:49.964Z,44.70
2023-02-13T13:50:24.413Z,44.28
2023-02-13T13:53:10.853Z,47.05
2023-02-13T13:55:47.843Z,46.60
2023-02-13T13:58:24.251Z,47.04
2023-02-13T14:01:23.364Z,46.78
2023-02-13T14:03:52.938Z,45.61
2023-02-13T14:06:22.056Z,46.87
2023-02-13T14:08:49.646Z,48.25
2023-02-13T14:11:46.784Z,48.25
2023-02-13T14:14:32.629Z,49.83
2023-02-13T14:17:04.159Z,47.01
2023-02-13T14:19:39.751Z,46.79
2023-02-13T14:22:19.869Z,48.85
2023-02-13T14:25:04.437Z,49.52
2023-02-13T14:27:35.141Z,50.59
2023-02-13T14:30:03.312Z,49.50
2023-02-13T14:32:33.524Z,49.15
2023-02-13T14:35:20.160Z,48.72
2023-02-13T14:37:53.473Z,47.74
2023-02-13T14:40:22.310Z,46.81
2023-02-13T14:42:57.488Z,47.58
2023-02-13T14:45:29.872Z,48.63
2023-02-13T14:47:58.203Z,49.33
2023-02-13T14:50:43.062Z,48.54
2023-02-13T14:53:20.128Z,48.59
2023-02-13T14:55:53.868Z,50.59
2023-02-13T14:58:25.548Z,51.33
2023-02-13T15:01:01.250Z,49.25
2023-02-13T15:03:34.709Z,49.82
2023-02-13T15:06:05.951Z,53.07
2023-02-13T15:08:41.404Z,50.93
2023-02-13T15:11:29.257Z,51.38
2023-02-13T15:13:56.700Z,52.86
2023-02-13T15:16:26.317Z,54.11
2023-02-13T15:18:55.383Z,52.97
2023-02-13T15:21:33.179Z,49.28
2023-02-13T15:24:01.007Z,51.24
2023-02-13T15:26:29.672Z,50.25
2023-02-13T15:29:17.454Z,48.34
2023-02-13T15:31:53.346Z,48.60
2023-02-13T15:34:35.346Z,49.76
2023-02-13T15:37:03.263Z,49.56
2023-02-13T15:39:32.158Z,49.36
2023-02-13T15:42:02.044Z,49.92
2023-02-13T15:44:34.260Z,50.47
2023-02-13T15:47:07.033Z,51.24
2023-02-13T15:49:40.182Z,50.40
2023-02-13T15:52:13.328Z,49.02
2023-02-13T15:54:52.067Z,54.65
2023-02-13T15:57:20.659Z,49.99
2023-02-13T15:59:51.888Z,49.18
2023-02-13T16:02:43.426Z,47.07
2023-02-13T16:05:13.402Z,51.88
2023-02-13T16:07:52.829Z,49.23
2023-02-13T16:10:35.571Z,45.69
2023-02-13T16:13:05.195Z,45.37
2023-02-13T16:15:35.317Z,44.72
2023-02-13T16:18:07.068Z,46.37
2023-02-13T16:20:35.499Z,44.14
2023-02-13T16:23:14.839Z,44.57
2023-02-13T16:25:43.779Z,45.95
2023-02-13T16:28:40.835Z,45.22
2023-02-13T16:31:15.508Z,45.00
2023-02-13T16:33:45.083Z,46.18
2023-02-13T16:36:13.435Z,47.50
2023-02-13T16:38:48.323Z,47.84
2023-02-13T16:41:19.749Z,47.30
2023-02-13T16:43:54.506Z,48.73
2023-02-13T16:46:46.013Z,50.28
2023-02-13T16:49:20.505Z,49.46
2023-02-13T16:51:53.066Z,47.40
2023-02-13T16:54:38.600Z,46.98
2023-02-13T16:57:19.320Z,47.43
2023-02-13T16:59:47.573Z,48.82
2023-02-13T17:02:27.484Z,50.27
2023-02-13T17:05:07.249Z,53.00
2023-02-13T17:07:46.945Z,55.10
2023-02-13T17:10:38.221Z,53.45
2023-02-13T17:13:09.776Z,53.65
2023-02-13T17:15:38.006Z,53.46
2023-02-13T17:18:06.290Z,52.53
2023-02-13T17:20:35.240Z,49.14
2023-02-13T17:23:05.982Z,47.14
2023-02-13T17:25:36.725Z,48.32
2023-02-13T17:28:14.562Z,50.95
2023-02-13T17:30:43.877Z,50.48
2023-02-13T17:33:18.830Z,49.58
2023-02-13T17:35:48.674Z,48.94
2023-02-13T17:38:17.475Z,49.00
2023-02-13T17:40:46.128Z,49.12
2023-02-13T17:43:17.887Z,50.37
2023-02-13T17:45:47.062Z,47.57
2023-02-13T17:48:15.957Z,48.06
2023-02-13T17:50:44.598Z,52.73
2023-02-13T17:53:22.271Z,52.40
2023-02-13T17:55:51.390Z,50.46
2023-02-13T17:58:21.275Z,51.20
2023-02-13T18:00:50.432Z,51.05
2023-02-13T18:03:20.312Z,52.09
2023-02-13T18:05:52.928Z,50.43
2023-02-13T18:08:22.241Z,52.22
2023-02-13T18:10:51.232Z,52.96
2023-02-13T18:13:20.127Z,55.41
2023-02-13T18:15:49.314Z,52.71
2023-02-13T18:18:18.400Z,52.82
2023-02-13T18:20:46.877Z,53.97
2023-02-13T18:23:17.147Z,55.61
2023-02-13T18:25:46.587Z,55.26
2023-02-13T18:28:15.844Z,51.84
2023-02-13T18:30:44.805Z,53.55
2023-02-13T18:33:13.801Z,52.55
2023-02-13T18:35:42.944Z,54.18
2023-02-13T18:38:11.860Z,54.68
2023-02-13T18:40:41.043Z,54.89
2023-02-13T18:43:10.088Z,52.48
2023-02-13T18:45:39.261Z,50.03
2023-02-13T18:48:09.619Z,51.07
2023-02-13T18:50:41.475Z,49.70
2023-02-13T18:53:10.269Z,51.09
2023-02-13T18:55:39.393Z,55.97
2023-02-13T18:58:08.373Z,60.84
2023-02-13T19:00:38.186Z,63.64
2023-02-13T19:03:06.972Z,69.21
2023-02-13T19:05:35.837Z,67.47
2023-02-13T19:08:06.123Z,63.51
2023-02-13T19:10:34.908Z,56.46
2023-02-13T19:13:03.813Z,55.17
2023-02-13T19:15:32.746Z,56.93
2023-02-13T19:18:03.849Z,61.42
2023-02-13T19:20:33.798Z,63.35
2023-02-13T19:23:02.852Z,57.02
2023-02-13T19:25:38.205Z,60.84
2023-02-13T19:28:07.058Z,59.57
2023-02-13T19:30:35.657Z,54.73
2023-02-13T19:33:04.623Z,58.13
2023-02-13T19:35:32.901Z,59.66
2023-02-13T19:38:03.349Z,58.39
2023-02-13T19:40:33.229Z,59.18
2023-02-13T19:43:04.942Z,60.27
2023-02-13T19:45:34.327Z,64.20
2023-02-13T19:48:04.543Z,59.60
2023-02-13T19:50:32.831Z,59.40
2023-02-13T19:53:04.325Z,59.26
2023-02-13T19:55:34.628Z,55.67
2023-02-13T19:58:04.041Z,54.49
2023-02-13T20:00:34.007Z,55.15
2023-02-13T20:03:05.680Z,58.05
2023-02-13T20:05:43.286Z,57.77
2023-02-13T20:08:13.199Z,58.79
2023-02-13T20:10:48.285Z,60.03
2023-02-13T20:13:18.024Z,59.17
2023-02-13T20:15:45.926Z,57.96
2023-02-13T20:18:15.862Z,57.56
2023-02-13T20:20:44.865Z,56.67
2023-02-13T20:23:13.735Z,56.52
2023-02-13T20:25:42.740Z,56.19
2023-02-13T20:28:11.646Z,56.00
2023-02-13T20:30:41.753Z,53.92
2023-02-13T20:33:12.554Z,54.29
2023-02-13T20:35:41.432Z,55.89
2023-02-13T20:38:11.010Z,57.77
2023-02-13T20:40:39.981Z,56.72
2023-02-13T20:43:12.017Z,56.30
2023-02-13T20:45:43.180Z,54.63
2023-02-13T20:48:13.000Z,55.33
2023-02-13T20:50:42.932Z,56.68
2023-02-13T20:53:11.180Z,56.03
2023-02-13T20:55:39.846Z,55.51
2023-02-13T20:58:10.788Z,59.44
2023-02-13T21:00:39.440Z,62.54
2023-02-13T21:03:07.955Z,66.87
2023-02-13T21:05:43.134Z,63.82
2023-02-13T21:08:11.483Z,69.55
2023-02-13T21:10:40.111Z,71.71
2023-02-13T21:13:10.787Z,72.40
2023-02-13T21:15:39.676Z,71.56
2023-02-13T21:18:08.286Z,67.75
2023-02-13T21:20:38.236Z,71.97
2023-02-13T21:23:06.992Z,73.36
2023-02-13T21:25:34.477Z,69.69
2023-02-13T21:28:02.600Z,69.09
2023-02-13T21:30:33.115Z,67.48
2023-02-13T21:33:01.434Z,68.98
2023-02-13T21:35:30.998Z,67.37
2023-02-13T21:37:59.331Z,70.41
2023-02-13T21:40:27.384Z,70.52
2023-02-13T21:42:54.777Z,74.95
2023-02-13T21:45:22.743Z,71.88
2023-02-13T21:47:50.289Z,72.12
2023-02-13T21:50:17.962Z,65.86
2023-02-13T21:52:46.093Z,60.86
2023-02-13T21:55:13.660Z,61.25
2023-02-13T21:57:41.417Z,65.76
2023-02-13T22:00:10.644Z,61.98
2023-02-13T22:02:40.270Z,68.47
2023-02-13T22:05:08.350Z,73.38
2023-02-13T22:07:55.672Z,76.96
2023-02-13T22:10:23.402Z,66.11
2023-02-13T22:12:52.546Z,58.79
2023-02-13T22:15:20.467Z,60.84
2023-02-13T22:17:48.188Z,68.83
2023-02-13T22:20:15.572Z,70.97
2023-02-13T22:22:42.953Z,66.64
2023-02-13T22:25:11.447Z,70.16
2023-02-13T22:27:38.944Z,69.69
2023-02-13T22:30:06.849Z,62.76
2023-02-13T22:32:35.584Z,61.33
2023-02-13T22:35:03.085Z,60.42
2023-02-13T22:37:30.486Z,60.31
2023-02-13T22:39:58.215Z,61.02
2023-02-13T22:42:25.600Z,64.48
2023-02-13T22:44:52.979Z,65.46
2023-02-13T22:47:20.603Z,65.10
2023-02-13T22:49:48.076Z,70.81
2023-02-13T22:52:15.453Z,71.86
2023-02-13T22:54:43.105Z,76.08
2023-02-13T22:57:10.484Z,79.93
2023-02-13T22:59:40.122Z,81.37
2023-02-13T23:02:08.139Z,80.58
2023-02-13T23:04:35.597Z,79.03
2023-02-13T23:07:03.044Z,78.04
2023-02-13T23:09:30.692Z,75.06
2023-02-13T23:12:16.506Z,75.23
2023-02-13T23:14:44.229Z,73.05
2023-02-13T23:17:30.269Z,74.40
2023-02-13T23:19:58.134Z,76.22
2023-02-13T23:22:25.542Z,73.42
2023-02-13T23:24:52.920Z,74.22
2023-02-13T23:27:20.573Z,73.71
2023-02-13T23:29:48.052Z,72.25
2023-02-13T23:32:15.708Z,72.51
2023-02-13T23:34:43.718Z,69.87
2023-02-13T23:37:11.319Z,72.71
2023-02-13T23:39:38.714Z,74.88
2023-02-13T23:42:06.408Z,74.59
2023-02-13T23:44:33.797Z,74.19
2023-02-13T23:47:01.183Z,71.60
2023-02-13T23:49:28.909Z,71.04
2023-02-13T23:51:56.297Z,70.74
2023-02-13T23:54:24.025Z,69.51
2023-02-13T23:56:53.817Z,67.54
2023-02-13T23:59:22.458Z,73.99
